sensor_id;sensor_type;location;lat;lon;timestamp;temperature;humidity
3262;DHT22;1643;47.746;9.000;2022-11-04T00:01:43;11.40;99.90
3262;DHT22;1643;47.746;9.000;2022-11-04T00:04:09;11.40;99.90
3262;DHT22;1643;47.746;9.000;2022-11-04T00:06:36;11.40;99.90
3262;DHT22;1643;47.746;9.000;2022-11-04T00:09:03;11.40;99.90
3262;DHT22;1643;47.746;9.000;2022-11-04T00:11:29;11.40;99.90
3262;DHT22;1643;47.746;9.000;2022-11-04T00:14:14;11.40;99.90
3262;DHT22;1643;47.746;9.000;2022-11-04T00:16:40;11.40;99.90
3262;DHT22;1643;47.746;9.000;2022-11-04T00:19:24;11.40;99.90
3262;DHT22;1643;47.746;9.000;2022-11-04T00:21:50;11.30;99.90
3262;DHT22;1643;47.746;9.000;2022-11-04T00:24:34;11.30;99.90
3262;DHT22;1643;47.746;9.000;2022-11-04T00:27:20;11.40;99.90
3262;DHT22;1643;47.746;9.000;2022-11-04T00:30:07;11.30;99.90
3262;DHT22;1643;47.746;9.000;2022-11-04T00:32:35;11.30;99.90
3262;DHT22;1643;47.746;9.000;2022-11-04T00:35:20;11.30;99.90
3262;DHT22;1643;47.746;9.000;2022-11-04T00:37:46;11.30;99.90
3262;DHT22;1643;47.746;9.000;2022-11-04T00:40:14;11.30;99.90
3262;DHT22;1643;47.746;9.000;2022-11-04T00:42:42;11.30;99.90
3262;DHT22;1643;47.746;9.000;2022-11-04T00:45:08;11.30;99.90
3262;DHT22;1643;47.746;9.000;2022-11-04T00:47:33;11.30;99.90
3262;DHT22;1643;47.746;9.000;2022-11-04T00:49:59;11.30;99.90
3262;DHT22;1643;47.746;9.000;2022-11-04T00:52:25;11.40;99.90
3262;DHT22;1643;47.746;9.000;2022-11-04T00:54:50;11.30;99.90
3262;DHT22;1643;47.746;9.000;2022-11-04T00:57:16;11.30;99.90
3262;DHT22;1643;47.746;9.000;2022-11-04T00:59:41;11.20;99.90
3262;DHT22;1643;47.746;9.000;2022-11-04T01:02:08;11.30;99.90
3262;DHT22;1643;47.746;9.000;2022-11-04T01:04:34;11.30;99.90
3262;DHT22;1643;47.746;9.000;2022-11-04T01:07:00;11.30;99.90
3262;DHT22;1643;47.746;9.000;2022-11-04T01:09:26;11.20;99.90
3262;DHT22;1643;47.746;9.000;2022-11-04T01:11:52;11.20;99.90
3262;DHT22;1643;47.746;9.000;2022-11-04T01:14:18;11.20;99.90
3262;DHT22;1643;47.746;9.000;2022-11-04T01:16:44;11.20;99.90
3262;DHT22;1643;47.746;9.000;2022-11-04T01:19:11;11.20;99.90
3262;DHT22;1643;47.746;9.000;2022-11-04T01:21:36;11.10;99.90
3262;DHT22;1643;47.746;9.000;2022-11-04T01:24:03;11.00;99.90
3262;DHT22;1643;47.746;9.000;2022-11-04T01:26:29;11.10;99.90
3262;DHT22;1643;47.746;9.000;2022-11-04T01:28:56;11.10;99.90
3262;DHT22;1643;47.746;9.000;2022-11-04T01:31:24;11.10;99.90
3262;DHT22;1643;47.746;9.000;2022-11-04T01:33:52;11.10;99.90
3262;DHT22;1643;47.746;9.000;2022-11-04T01:36:18;11.20;99.90
3262;DHT22;1643;47.746;9.000;2022-11-04T01:38:44;11.10;99.90
3262;DHT22;1643;47.746;9.000;2022-11-04T01:41:17;11.10;99.90
3262;DHT22;1643;47.746;9.000;2022-11-04T01:43:55;11.10;99.90
3262;DHT22;1643;47.746;9.000;2022-11-04T01:46:43;11.10;99.90
3262;DHT22;1643;47.746;9.000;2022-11-04T01:49:34;11.10;99.90
3262;DHT22;1643;47.746;9.000;2022-11-04T01:52:14;11.10;99.90
3262;DHT22;1643;47.746;9.000;2022-11-04T01:54:42;11.10;99.90
3262;DHT22;1643;47.746;9.000;2022-11-04T01:57:12;11.10;99.90
3262;DHT22;1643;47.746;9.000;2022-11-04T01:59:39;11.10;99.90
3262;DHT22;1643;47.746;9.000;2022-11-04T02:02:06;11.00;99.90
3262;DHT22;1643;47.746;9.000;2022-11-04T02:04:32;11.00;99.90
3262;DHT22;1643;47.746;9.000;2022-11-04T02:07:00;11.10;99.90
3262;DHT22;1643;47.746;9.000;2022-11-04T02:09:29;11.00;99.90
3262;DHT22;1643;47.746;9.000;2022-11-04T02:11:55;10.80;99.90
3262;DHT22;1643;47.746;9.000;2022-11-04T02:14:40;10.90;99.90
3262;DHT22;1643;47.746;9.000;2022-11-04T02:39:40;10.40;99.90
3262;DHT22;1643;47.746;9.000;2022-11-04T02:47:45;10.50;99.90
3262;DHT22;1643;47.746;9.000;2022-11-04T02:50:29;10.40;99.90
3262;DHT22;1643;47.746;9.000;2022-11-04T02:55:31;10.40;99.90
3262;DHT22;1643;47.746;9.000;2022-11-04T02:57:59;10.40;99.90
3262;DHT22;1643;47.746;9.000;2022-11-04T03:00:27;10.50;99.90
3262;DHT22;1643;47.746;9.000;2022-11-04T03:03:02;10.40;99.90
3262;DHT22;1643;47.746;9.000;2022-11-04T03:05:33;10.30;99.90
3262;DHT22;1643;47.746;9.000;2022-11-04T03:08:09;10.40;99.90
3262;DHT22;1643;47.746;9.000;2022-11-04T03:10:40;10.30;99.90
3262;DHT22;1643;47.746;9.000;2022-11-04T03:13:16;10.30;99.90
3262;DHT22;1643;47.746;9.000;2022-11-04T03:15:57;10.30;99.90
3262;DHT22;1643;47.746;9.000;2022-11-04T03:18:32;10.40;99.90
3262;DHT22;1643;47.746;9.000;2022-11-04T03:21:02;10.30;99.90
3262;DHT22;1643;47.746;9.000;2022-11-04T03:23:28;10.30;99.90
3262;DHT22;1643;47.746;9.000;2022-11-04T03:26:03;10.20;99.90
3262;DHT22;1643;47.746;9.000;2022-11-04T03:31:46;10.30;99.90
3262;DHT22;1643;47.746;9.000;2022-11-04T03:34:14;10.30;99.90
3262;DHT22;1643;47.746;9.000;2022-11-04T03:36:39;10.30;99.90
3262;DHT22;1643;47.746;9.000;2022-11-04T03:39:05;10.30;99.90
3262;DHT22;1643;47.746;9.000;2022-11-04T03:41:45;10.30;99.90
3262;DHT22;1643;47.746;9.000;2022-11-04T03:44:12;10.20;99.90
3262;DHT22;1643;47.746;9.000;2022-11-04T03:46:38;10.20;99.90
3262;DHT22;1643;47.746;9.000;2022-11-04T03:49:04;10.30;99.90
3262;DHT22;1643;47.746;9.000;2022-11-04T03:51:31;10.30;99.90
3262;DHT22;1643;47.746;9.000;2022-11-04T03:53:56;10.40;99.90
3262;DHT22;1643;47.746;9.000;2022-11-04T03:59:27;10.40;99.90
3262;DHT22;1643;47.746;9.000;2022-11-04T04:01:58;10.30;99.90
3262;DHT22;1643;47.746;9.000;2022-11-04T04:04:35;10.40;99.90
3262;DHT22;1643;47.746;9.000;2022-11-04T04:10:19;10.40;99.90
3262;DHT22;1643;47.746;9.000;2022-11-04T04:13:20;10.40;99.90
3262;DHT22;1643;47.746;9.000;2022-11-04T04:16:02;10.40;99.90
3262;DHT22;1643;47.746;9.000;2022-11-04T04:21:18;10.40;99.90
3262;DHT22;1643;47.746;9.000;2022-11-04T04:23:46;10.40;99.90
3262;DHT22;1643;47.746;9.000;2022-11-04T04:26:33;10.50;99.90
3262;DHT22;1643;47.746;9.000;2022-11-04T04:29:19;10.40;99.90
3262;DHT22;1643;47.746;9.000;2022-11-04T04:31:47;10.40;99.90
3262;DHT22;1643;47.746;9.000;2022-11-04T04:34:14;10.40;99.90
3262;DHT22;1643;47.746;9.000;2022-11-04T04:36:53;10.30;99.90
3262;DHT22;1643;47.746;9.000;2022-11-04T04:39:24;10.20;99.90
3262;DHT22;1643;47.746;9.000;2022-11-04T04:42:12;10.30;99.90
3262;DHT22;1643;47.746;9.000;2022-11-04T04:44:56;10.20;99.90
3262;DHT22;1643;47.746;9.000;2022-11-04T04:47:27;10.20;99.90
3262;DHT22;1643;47.746;9.000;2022-11-04T04:49:56;10.20;99.90
3262;DHT22;1643;47.746;9.000;2022-11-04T04:52:24;10.30;99.90
3262;DHT22;1643;47.746;9.000;2022-11-04T04:54:51;10.30;99.90
3262;DHT22;1643;47.746;9.000;2022-11-04T04:57:16;10.30;99.90
3262;DHT22;1643;47.746;9.000;2022-11-04T04:59:42;10.30;99.90
3262;DHT22;1643;47.746;9.000;2022-11-04T05:02:07;10.30;99.90
3262;DHT22;1643;47.746;9.000;2022-11-04T05:04:33;10.30;99.90
3262;DHT22;1643;47.746;9.000;2022-11-04T05:06:59;10.40;99.90
3262;DHT22;1643;47.746;9.000;2022-11-04T05:09:24;10.40;99.90
3262;DHT22;1643;47.746;9.000;2022-11-04T05:11:50;10.40;99.90
3262;DHT22;1643;47.746;9.000;2022-11-04T05:14:15;10.40;99.90
3262;DHT22;1643;47.746;9.000;2022-11-04T05:16:41;10.40;99.90
3262;DHT22;1643;47.746;9.000;2022-11-04T05:19:07;10.40;99.90
3262;DHT22;1643;47.746;9.000;2022-11-04T05:21:32;10.30;99.90
3262;DHT22;1643;47.746;9.000;2022-11-04T05:23:58;10.30;99.90
3262;DHT22;1643;47.746;9.000;2022-11-04T05:26:23;10.20;99.90
3262;DHT22;1643;47.746;9.000;2022-11-04T05:28:49;10.30;99.90
3262;DHT22;1643;47.746;9.000;2022-11-04T05:31:14;10.30;99.90
3262;DHT22;1643;47.746;9.000;2022-11-04T05:33:40;10.20;99.90
3262;DHT22;1643;47.746;9.000;2022-11-04T05:38:33;10.30;99.90
3262;DHT22;1643;47.746;9.000;2022-11-04T05:40:58;10.30;99.90
3262;DHT22;1643;47.746;9.000;2022-11-04T05:43:24;10.30;99.90
3262;DHT22;1643;47.746;9.000;2022-11-04T05:45:49;10.30;99.90
3262;DHT22;1643;47.746;9.000;2022-11-04T05:48:15;10.30;99.90
3262;DHT22;1643;47.746;9.000;2022-11-04T05:50:41;10.30;99.90
3262;DHT22;1643;47.746;9.000;2022-11-04T05:53:06;10.40;99.90
3262;DHT22;1643;47.746;9.000;2022-11-04T05:55:32;10.40;99.90
3262;DHT22;1643;47.746;9.000;2022-11-04T05:57:58;10.30;99.90
3262;DHT22;1643;47.746;9.000;2022-11-04T06:00:24;10.40;99.90
3262;DHT22;1643;47.746;9.000;2022-11-04T06:02:50;10.30;99.90
3262;DHT22;1643;47.746;9.000;2022-11-04T06:05:16;10.30;99.90
3262;DHT22;1643;47.746;9.000;2022-11-04T06:07:41;10.30;99.90
3262;DHT22;1643;47.746;9.000;2022-11-04T06:10:07;10.30;99.90
3262;DHT22;1643;47.746;9.000;2022-11-04T06:12:33;10.30;99.90
3262;DHT22;1643;47.746;9.000;2022-11-04T06:14:58;10.30;99.90
3262;DHT22;1643;47.746;9.000;2022-11-04T06:17:24;10.40;99.90
3262;DHT22;1643;47.746;9.000;2022-11-04T06:19:50;10.30;99.90
3262;DHT22;1643;47.746;9.000;2022-11-04T06:22:17;10.30;99.90
3262;DHT22;1643;47.746;9.000;2022-11-04T06:24:43;10.30;99.90
3262;DHT22;1643;47.746;9.000;2022-11-04T06:27:09;10.30;99.90
3262;DHT22;1643;47.746;9.000;2022-11-04T06:29:35;10.30;99.90
3262;DHT22;1643;47.746;9.000;2022-11-04T06:32:05;10.30;99.90
3262;DHT22;1643;47.746;9.000;2022-11-04T06:34:31;10.30;99.90
3262;DHT22;1643;47.746;9.000;2022-11-04T06:36:56;10.30;99.90
3262;DHT22;1643;47.746;9.000;2022-11-04T06:39:22;10.30;99.90
3262;DHT22;1643;47.746;9.000;2022-11-04T06:41:47;10.30;99.90
3262;DHT22;1643;47.746;9.000;2022-11-04T06:44:13;10.30;99.90
3262;DHT22;1643;47.746;9.000;2022-11-04T06:46:40;10.30;99.90
3262;DHT22;1643;47.746;9.000;2022-11-04T06:49:11;10.40;99.90
3262;DHT22;1643;47.746;9.000;2022-11-04T06:51:37;10.50;99.90
3262;DHT22;1643;47.746;9.000;2022-11-04T06:54:03;10.50;99.90
3262;DHT22;1643;47.746;9.000;2022-11-04T06:56:28;10.50;99.90
3262;DHT22;1643;47.746;9.000;2022-11-04T06:58:54;10.50;99.90
3262;DHT22;1643;47.746;9.000;2022-11-04T07:01:23;10.40;99.90
3262;DHT22;1643;47.746;9.000;2022-11-04T07:03:50;10.40;99.90
3262;DHT22;1643;47.746;9.000;2022-11-04T07:06:17;10.30;99.90
3262;DHT22;1643;47.746;9.000;2022-11-04T07:08:43;10.20;99.90
3262;DHT22;1643;47.746;9.000;2022-11-04T07:11:08;10.20;99.90
3262;DHT22;1643;47.746;9.000;2022-11-04T07:13:34;10.20;99.90
3262;DHT22;1643;47.746;9.000;2022-11-04T07:16:02;10.20;99.90
3262;DHT22;1643;47.746;9.000;2022-11-04T07:18:28;10.20;99.90
3262;DHT22;1643;47.746;9.000;2022-11-04T07:20:56;10.20;99.90
3262;DHT22;1643;47.746;9.000;2022-11-04T07:23:22;10.20;99.90
3262;DHT22;1643;47.746;9.000;2022-11-04T07:25:48;10.20;99.90
3262;DHT22;1643;47.746;9.000;2022-11-04T07:28:13;10.30;99.90
3262;DHT22;1643;47.746;9.000;2022-11-04T07:30:39;10.30;99.90
3262;DHT22;1643;47.746;9.000;2022-11-04T07:33:05;10.40;99.90
3262;DHT22;1643;47.746;9.000;2022-11-04T07:35:30;10.40;99.90
3262;DHT22;1643;47.746;9.000;2022-11-04T07:37:56;10.40;99.90
3262;DHT22;1643;47.746;9.000;2022-11-04T07:40:22;10.40;99.90
3262;DHT22;1643;47.746;9.000;2022-11-04T07:42:47;10.40;99.90
3262;DHT22;1643;47.746;9.000;2022-11-04T07:45:13;10.50;99.90
3262;DHT22;1643;47.746;9.000;2022-11-04T07:47:38;10.50;99.90
3262;DHT22;1643;47.746;9.000;2022-11-04T07:50:04;10.50;99.90
3262;DHT22;1643;47.746;9.000;2022-11-04T07:52:30;10.50;99.90
3262;DHT22;1643;47.746;9.000;2022-11-04T07:54:55;10.50;99.90
3262;DHT22;1643;47.746;9.000;2022-11-04T07:57:21;10.50;99.90
3262;DHT22;1643;47.746;9.000;2022-11-04T07:59:47;10.50;99.90
3262;DHT22;1643;47.746;9.000;2022-11-04T08:02:12;10.50;99.90
3262;DHT22;1643;47.746;9.000;2022-11-04T08:04:38;10.50;99.90
3262;DHT22;1643;47.746;9.000;2022-11-04T08:07:07;10.50;99.90
3262;DHT22;1643;47.746;9.000;2022-11-04T08:09:34;10.60;99.90
3262;DHT22;1643;47.746;9.000;2022-11-04T08:12:02;10.60;99.90
3262;DHT22;1643;47.746;9.000;2022-11-04T08:14:27;10.60;99.90
3262;DHT22;1643;47.746;9.000;2022-11-04T08:16:53;10.60;99.90
3262;DHT22;1643;47.746;9.000;2022-11-04T08:19:19;10.60;99.90
3262;DHT22;1643;47.746;9.000;2022-11-04T08:21:44;10.60;99.90
3262;DHT22;1643;47.746;9.000;2022-11-04T08:24:10;10.60;99.90
3262;DHT22;1643;47.746;9.000;2022-11-04T08:26:35;10.60;99.90
3262;DHT22;1643;47.746;9.000;2022-11-04T08:29:05;10.60;99.90
3262;DHT22;1643;47.746;9.000;2022-11-04T08:31:31;10.70;99.90
3262;DHT22;1643;47.746;9.000;2022-11-04T08:33:58;10.70;99.90
3262;DHT22;1643;47.746;9.000;2022-11-04T08:36:29;10.70;99.90
3262;DHT22;1643;47.746;9.000;2022-11-04T08:38:56;10.80;99.90
3262;DHT22;1643;47.746;9.000;2022-11-04T08:41:25;10.80;99.90
3262;DHT22;1643;47.746;9.000;2022-11-04T08:43:50;10.80;99.90
3262;DHT22;1643;47.746;9.000;2022-11-04T08:46:17;10.80;99.90
3262;DHT22;1643;47.746;9.000;2022-11-04T08:48:43;10.90;99.90
3262;DHT22;1643;47.746;9.000;2022-11-04T08:51:19;10.90;99.90
3262;DHT22;1643;47.746;9.000;2022-11-04T08:53:45;11.00;99.90
3262;DHT22;1643;47.746;9.000;2022-11-04T08:56:26;11.00;99.90
3262;DHT22;1643;47.746;9.000;2022-11-04T08:58:52;11.00;99.90
3262;DHT22;1643;47.746;9.000;2022-11-04T09:01:19;11.00;99.90
3262;DHT22;1643;47.746;9.000;2022-11-04T09:03:46;11.10;99.90
3262;DHT22;1643;47.746;9.000;2022-11-04T09:06:14;11.20;99.90
3262;DHT22;1643;47.746;9.000;2022-11-04T09:08:41;11.20;99.90
3262;DHT22;1643;47.746;9.000;2022-11-04T09:11:09;11.30;99.90
3262;DHT22;1643;47.746;9.000;2022-11-04T09:13:36;11.30;99.90
3262;DHT22;1643;47.746;9.000;2022-11-04T09:16:03;11.40;99.90
3262;DHT22;1643;47.746;9.000;2022-11-04T09:18:29;11.40;99.90
3262;DHT22;1643;47.746;9.000;2022-11-04T09:20:58;11.50;99.90
3262;DHT22;1643;47.746;9.000;2022-11-04T09:23:25;11.50;99.90
3262;DHT22;1643;47.746;9.000;2022-11-04T09:25:50;11.60;99.90
3262;DHT22;1643;47.746;9.000;2022-11-04T09:28:16;11.70;99.90
3262;DHT22;1643;47.746;9.000;2022-11-04T09:30:42;11.80;99.90
3262;DHT22;1643;47.746;9.000;2022-11-04T09:33:07;11.80;99.90
3262;DHT22;1643;47.746;9.000;2022-11-04T09:35:33;11.80;99.90
3262;DHT22;1643;47.746;9.000;2022-11-04T09:37:59;11.90;99.90
3262;DHT22;1643;47.746;9.000;2022-11-04T09:40:28;11.90;99.90
3262;DHT22;1643;47.746;9.000;2022-11-04T09:45:53;11.80;99.90
3262;DHT22;1643;47.746;9.000;2022-11-04T09:48:40;11.80;99.90
3262;DHT22;1643;47.746;9.000;2022-11-04T09:51:06;11.80;99.90
3262;DHT22;1643;47.746;9.000;2022-11-04T09:53:48;11.80;99.90
3262;DHT22;1643;47.746;9.000;2022-11-04T09:56:20;11.80;99.90
3262;DHT22;1643;47.746;9.000;2022-11-04T09:58:47;11.80;99.90
3262;DHT22;1643;47.746;9.000;2022-11-04T10:01:27;11.80;99.90
3262;DHT22;1643;47.746;9.000;2022-11-04T10:04:12;12.00;99.90
3262;DHT22;1643;47.746;9.000;2022-11-04T10:29:42;11.80;99.90
3262;DHT22;1643;47.746;9.000;2022-11-04T10:32:16;11.90;99.90
3262;DHT22;1643;47.746;9.000;2022-11-04T10:34:59;11.80;99.90
3262;DHT22;1643;47.746;9.000;2022-11-04T10:37:26;11.80;99.90
3262;DHT22;1643;47.746;9.000;2022-11-04T10:40:01;11.80;99.90
3262;DHT22;1643;47.746;9.000;2022-11-04T10:42:31;12.00;99.90
3262;DHT22;1643;47.746;9.000;2022-11-04T10:44:57;12.00;99.90
3262;DHT22;1643;47.746;9.000;2022-11-04T10:50:50;11.90;99.90
3262;DHT22;1643;47.746;9.000;2022-11-04T10:53:22;12.00;99.90
3262;DHT22;1643;47.746;9.000;2022-11-04T10:58:41;12.20;99.90
3262;DHT22;1643;47.746;9.000;2022-11-04T11:01:30;12.40;99.90
3262;DHT22;1643;47.746;9.000;2022-11-04T11:03:57;12.50;99.90
3262;DHT22;1643;47.746;9.000;2022-11-04T11:06:31;12.70;99.90
3262;DHT22;1643;47.746;9.000;2022-11-04T11:09:10;12.90;99.90
3262;DHT22;1643;47.746;9.000;2022-11-04T11:11:47;13.00;99.90
3262;DHT22;1643;47.746;9.000;2022-11-04T11:16:45;13.30;99.90
3262;DHT22;1643;47.746;9.000;2022-11-04T11:19:24;13.70;99.90
3262;DHT22;1643;47.746;9.000;2022-11-04T11:21:51;14.30;99.90
3262;DHT22;1643;47.746;9.000;2022-11-04T11:24:20;14.50;99.90
3262;DHT22;1643;47.746;9.000;2022-11-04T11:26:49;14.60;99.90
3262;DHT22;1643;47.746;9.000;2022-11-04T11:29:35;14.20;99.90
3262;DHT22;1643;47.746;9.000;2022-11-04T11:32:06;13.60;99.90
3262;DHT22;1643;47.746;9.000;2022-11-04T11:34:43;13.50;99.90
3262;DHT22;1643;47.746;9.000;2022-11-04T11:37:20;13.90;99.90
3262;DHT22;1643;47.746;9.000;2022-11-04T11:39:48;14.20;99.90
3262;DHT22;1643;47.746;9.000;2022-11-04T11:42:15;14.40;99.90
3262;DHT22;1643;47.746;9.000;2022-11-04T11:44:52;14.70;99.90
3262;DHT22;1643;47.746;9.000;2022-11-04T11:52:38;15.10;99.90
3262;DHT22;1643;47.746;9.000;2022-11-04T11:55:35;15.50;99.90
3262;DHT22;1643;47.746;9.000;2022-11-04T12:01:03;15.60;99.90
3262;DHT22;1643;47.746;9.000;2022-11-04T12:03:38;15.60;99.90
3262;DHT22;1643;47.746;9.000;2022-11-04T12:06:28;15.40;99.90
3262;DHT22;1643;47.746;9.000;2022-11-04T12:22:32;14.00;99.90
3262;DHT22;1643;47.746;9.000;2022-11-04T12:40:27;13.50;99.90
3262;DHT22;1643;47.746;9.000;2022-11-04T12:43:06;13.40;99.90
3262;DHT22;1643;47.746;9.000;2022-11-04T12:46:06;13.40;99.90
3262;DHT22;1643;47.746;9.000;2022-11-04T12:51:42;13.40;99.90
3262;DHT22;1643;47.746;9.000;2022-11-04T12:57:29;13.50;99.90
3262;DHT22;1643;47.746;9.000;2022-11-04T13:00:09;13.50;99.90
3262;DHT22;1643;47.746;9.000;2022-11-04T13:02:47;13.50;99.90
3262;DHT22;1643;47.746;9.000;2022-11-04T13:05:26;13.60;99.90
3262;DHT22;1643;47.746;9.000;2022-11-04T13:08:14;13.70;99.90
3262;DHT22;1643;47.746;9.000;2022-11-04T13:10:58;13.70;99.90
3262;DHT22;1643;47.746;9.000;2022-11-04T13:13:30;13.80;99.90
3262;DHT22;1643;47.746;9.000;2022-11-04T13:15:59;13.90;99.90
3262;DHT22;1643;47.746;9.000;2022-11-04T13:18:30;13.90;99.90
3262;DHT22;1643;47.746;9.000;2022-11-04T13:21:04;13.80;99.90
3262;DHT22;1643;47.746;9.000;2022-11-04T13:23:39;13.90;99.90
3262;DHT22;1643;47.746;9.000;2022-11-04T13:26:11;13.90;99.90
3262;DHT22;1643;47.746;9.000;2022-11-04T13:28:38;13.90;99.90
3262;DHT22;1643;47.746;9.000;2022-11-04T13:37:35;14.00;99.90
3262;DHT22;1643;47.746;9.000;2022-11-04T13:40:23;14.00;99.90
3262;DHT22;1643;47.746;9.000;2022-11-04T13:45:19;13.80;99.90
3262;DHT22;1643;47.746;9.000;2022-11-04T13:50:36;13.80;99.90
3262;DHT22;1643;47.746;9.000;2022-11-04T13:53:06;13.90;99.90
3262;DHT22;1643;47.746;9.000;2022-11-04T13:55:33;13.80;99.90
3262;DHT22;1643;47.746;9.000;2022-11-04T13:58:02;13.80;99.90
3262;DHT22;1643;47.746;9.000;2022-11-04T14:00:33;13.80;99.90
3262;DHT22;1643;47.746;9.000;2022-11-04T14:02:59;13.80;99.90
3262;DHT22;1643;47.746;9.000;2022-11-04T14:18:46;13.80;99.90
3262;DHT22;1643;47.746;9.000;2022-11-04T14:21:14;13.90;99.90
3262;DHT22;1643;47.746;9.000;2022-11-04T14:23:42;13.70;99.90
3262;DHT22;1643;47.746;9.000;2022-11-04T14:26:10;13.60;99.90
3262;DHT22;1643;47.746;9.000;2022-11-04T14:28:38;13.40;99.90
3262;DHT22;1643;47.746;9.000;2022-11-04T14:31:08;13.30;99.90
3262;DHT22;1643;47.746;9.000;2022-11-04T14:36:31;13.40;99.90
3262;DHT22;1643;47.746;9.000;2022-11-04T14:46:40;13.40;99.90
3262;DHT22;1643;47.746;9.000;2022-11-04T14:49:06;13.40;99.90
3262;DHT22;1643;47.746;9.000;2022-11-04T14:51:39;13.50;99.90
3262;DHT22;1643;47.746;9.000;2022-11-04T14:54:21;13.50;99.90
3262;DHT22;1643;47.746;9.000;2022-11-04T14:56:49;13.50;99.90
3262;DHT22;1643;47.746;9.000;2022-11-04T14:59:25;13.50;99.90
3262;DHT22;1643;47.746;9.000;2022-11-04T15:01:52;13.50;99.90
3262;DHT22;1643;47.746;9.000;2022-11-04T15:04:28;13.40;99.90
3262;DHT22;1643;47.746;9.000;2022-11-04T15:07:03;13.40;99.90
3262;DHT22;1643;47.746;9.000;2022-11-04T15:09:38;13.50;99.90
3262;DHT22;1643;47.746;9.000;2022-11-04T15:12:12;13.50;99.90
3262;DHT22;1643;47.746;9.000;2022-11-04T15:14:58;13.50;99.90
3262;DHT22;1643;47.746;9.000;2022-11-04T15:17:30;13.40;99.90
3262;DHT22;1643;47.746;9.000;2022-11-04T15:19:58;13.20;99.90
3262;DHT22;1643;47.746;9.000;2022-11-04T15:22:26;13.10;99.90
3262;DHT22;1643;47.746;9.000;2022-11-04T15:24:52;13.10;99.90
3262;DHT22;1643;47.746;9.000;2022-11-04T15:27:28;12.90;99.90
3262;DHT22;1643;47.746;9.000;2022-11-04T15:30:00;12.80;99.90
3262;DHT22;1643;47.746;9.000;2022-11-04T15:32:27;12.90;99.90
3262;DHT22;1643;47.746;9.000;2022-11-04T15:34:53;12.90;99.90
3262;DHT22;1643;47.746;9.000;2022-11-04T15:37:21;12.90;99.90
3262;DHT22;1643;47.746;9.000;2022-11-04T15:39:51;12.80;99.90
3262;DHT22;1643;47.746;9.000;2022-11-04T15:42:26;12.80;99.90
3262;DHT22;1643;47.746;9.000;2022-11-04T15:45:37;12.70;99.90
3262;DHT22;1643;47.746;9.000;2022-11-04T15:48:30;12.70;99.90
3262;DHT22;1643;47.746;9.000;2022-11-04T15:53:58;12.50;99.90
3262;DHT22;1643;47.746;9.000;2022-11-04T15:56:27;12.40;99.90
3262;DHT22;1643;47.746;9.000;2022-11-04T15:58:54;12.40;99.90
3262;DHT22;1643;47.746;9.000;2022-11-04T16:01:21;12.30;99.90
3262;DHT22;1643;47.746;9.000;2022-11-04T16:03:57;12.20;99.90
3262;DHT22;1643;47.746;9.000;2022-11-04T16:06:35;12.20;99.90
3262;DHT22;1643;47.746;9.000;2022-11-04T16:11:38;12.10;99.90
3262;DHT22;1643;47.746;9.000;2022-11-04T16:14:33;12.00;99.90
3262;DHT22;1643;47.746;9.000;2022-11-04T16:16:59;12.00;99.90
3262;DHT22;1643;47.746;9.000;2022-11-04T16:19:27;12.00;99.90
3262;DHT22;1643;47.746;9.000;2022-11-04T16:21:59;12.00;99.90
3262;DHT22;1643;47.746;9.000;2022-11-04T16:24:29;12.00;99.90
3262;DHT22;1643;47.746;9.000;2022-11-04T16:26:56;11.90;99.90
3262;DHT22;1643;47.746;9.000;2022-11-04T16:29:28;11.80;99.90
3262;DHT22;1643;47.746;9.000;2022-11-04T16:34:36;11.80;99.90
3262;DHT22;1643;47.746;9.000;2022-11-04T16:37:03;11.80;99.90
3262;DHT22;1643;47.746;9.000;2022-11-04T16:39:29;11.70;99.90
3262;DHT22;1643;47.746;9.000;2022-11-04T16:41:55;11.70;99.90
3262;DHT22;1643;47.746;9.000;2022-11-04T16:44:22;11.70;99.90
3262;DHT22;1643;47.746;9.000;2022-11-04T16:46:48;11.70;99.90
3262;DHT22;1643;47.746;9.000;2022-11-04T16:49:15;11.70;99.90
3262;DHT22;1643;47.746;9.000;2022-11-04T16:51:43;11.70;99.90
3262;DHT22;1643;47.746;9.000;2022-11-04T16:54:09;11.70;99.90
3262;DHT22;1643;47.746;9.000;2022-11-04T16:56:35;11.70;99.90
3262;DHT22;1643;47.746;9.000;2022-11-04T16:59:01;11.60;99.90
3262;DHT22;1643;47.746;9.000;2022-11-04T17:01:27;11.60;99.90
3262;DHT22;1643;47.746;9.000;2022-11-04T17:03:52;11.50;99.90
3262;DHT22;1643;47.746;9.000;2022-11-04T17:06:18;11.60;99.90
3262;DHT22;1643;47.746;9.000;2022-11-04T17:08:44;11.60;99.90
3262;DHT22;1643;47.746;9.000;2022-11-04T17:11:10;11.50;99.90
3262;DHT22;1643;47.746;9.000;2022-11-04T17:13:36;11.60;99.90
3262;DHT22;1643;47.746;9.000;2022-11-04T17:16:03;11.60;99.90
3262;DHT22;1643;47.746;9.000;2022-11-04T17:18:30;11.60;99.90
3262;DHT22;1643;47.746;9.000;2022-11-04T17:20:57;11.60;99.90
3262;DHT22;1643;47.746;9.000;2022-11-04T17:23:23;11.50;99.90
3262;DHT22;1643;47.746;9.000;2022-11-04T17:25:49;11.60;99.90
3262;DHT22;1643;47.746;9.000;2022-11-04T17:28:15;11.50;99.90
3262;DHT22;1643;47.746;9.000;2022-11-04T17:30:42;11.50;99.90
3262;DHT22;1643;47.746;9.000;2022-11-04T17:33:15;11.50;99.90
3262;DHT22;1643;47.746;9.000;2022-11-04T17:35:42;11.50;99.90
3262;DHT22;1643;47.746;9.000;2022-11-04T17:38:10;11.50;99.90
3262;DHT22;1643;47.746;9.000;2022-11-04T17:40:36;11.50;99.90
3262;DHT22;1643;47.746;9.000;2022-11-04T17:43:22;11.50;99.90
3262;DHT22;1643;47.746;9.000;2022-11-04T17:46:06;11.50;99.90
3262;DHT22;1643;47.746;9.000;2022-11-04T17:48:50;11.50;99.90
3262;DHT22;1643;47.746;9.000;2022-11-04T17:51:16;11.50;99.90
3262;DHT22;1643;47.746;9.000;2022-11-04T17:53:41;11.50;99.90
3262;DHT22;1643;47.746;9.000;2022-11-04T17:56:18;11.50;99.90
3262;DHT22;1643;47.746;9.000;2022-11-04T17:58:44;11.50;99.90
3262;DHT22;1643;47.746;9.000;2022-11-04T18:01:11;11.50;99.90
3262;DHT22;1643;47.746;9.000;2022-11-04T18:03:38;11.50;99.90
3262;DHT22;1643;47.746;9.000;2022-11-04T18:06:05;11.50;99.90
3262;DHT22;1643;47.746;9.000;2022-11-04T18:08:31;11.50;99.90
3262;DHT22;1643;47.746;9.000;2022-11-04T18:11:02;11.50;99.90
3262;DHT22;1643;47.746;9.000;2022-11-04T18:13:28;11.50;99.90
3262;DHT22;1643;47.746;9.000;2022-11-04T18:15:53;11.50;99.90
3262;DHT22;1643;47.746;9.000;2022-11-04T18:18:19;11.50;99.90
3262;DHT22;1643;47.746;9.000;2022-11-04T18:20:45;11.50;99.90
3262;DHT22;1643;47.746;9.000;2022-11-04T18:23:11;11.30;99.90
3262;DHT22;1643;47.746;9.000;2022-11-04T18:25:40;11.30;99.90
3262;DHT22;1643;47.746;9.000;2022-11-04T18:28:08;11.20;99.90
3262;DHT22;1643;47.746;9.000;2022-11-04T18:30:34;11.20;99.90
3262;DHT22;1643;47.746;9.000;2022-11-04T18:33:00;11.20;99.90
3262;DHT22;1643;47.746;9.000;2022-11-04T18:35:25;11.10;99.90
3262;DHT22;1643;47.746;9.000;2022-11-04T18:37:51;11.10;99.90
3262;DHT22;1643;47.746;9.000;2022-11-04T18:40:16;11.20;99.90
3262;DHT22;1643;47.746;9.000;2022-11-04T18:42:42;11.20;99.90
3262;DHT22;1643;47.746;9.000;2022-11-04T18:45:09;11.10;99.90
3262;DHT22;1643;47.746;9.000;2022-11-04T18:47:34;11.10;99.90
3262;DHT22;1643;47.746;9.000;2022-11-04T18:50:00;11.10;99.90
3262;DHT22;1643;47.746;9.000;2022-11-04T18:52:26;11.20;99.90
3262;DHT22;1643;47.746;9.000;2022-11-04T18:54:51;11.20;99.90
3262;DHT22;1643;47.746;9.000;2022-11-04T18:57:17;11.20;99.90
3262;DHT22;1643;47.746;9.000;2022-11-04T18:59:43;11.20;99.90
3262;DHT22;1643;47.746;9.000;2022-11-04T19:02:17;11.20;99.90
3262;DHT22;1643;47.746;9.000;2022-11-04T19:04:43;11.20;99.90
3262;DHT22;1643;47.746;9.000;2022-11-04T19:07:09;11.10;99.90